sensor_id;sensor_type;location;lat;lon;timestamp;pressure;altitude;pressure_sealevel;temperature;humidity
72428;BME280;60419;48.880;18.036;2023-03-14T00:01:44;97875.72;;;10.11;50.27
72428;BME280;60419;48.880;18.036;2023-03-14T00:04:30;97860.25;;;9.99;50.84
72428;BME280;60419;48.880;18.036;2023-03-14T00:07:15;97859.25;;;9.83;51.43
72428;BME280;60419;48.880;18.036;2023-03-14T00:10:02;97840.78;;;9.93;51.17
72428;BME280;60419;48.880;18.036;2023-03-14T00:12:49;97830.88;;;9.56;51.98
72428;BME280;60419;48.880;18.036;2023-03-14T00:15:35;97811.97;;;9.85;51.37
72428;BME280;60419;48.880;18.036;2023-03-14T00:18:20;97839.78;;;9.35;52.35
72428;BME280;60419;48.880;18.036;2023-03-14T00:21:07;97849.59;;;9.31;52.74
72428;BME280;60419;48.880;18.036;2023-03-14T00:23:53;97839.97;;;9.21;53.32
72428;BME280;60419;48.880;18.036;2023-03-14T00:26:38;97815.16;;;9.37;52.46
72428;BME280;60419;48.880;18.036;2023-03-14T00:29:23;97823.72;;;9.39;51.84
72428;BME280;60419;48.880;18.036;2023-03-14T00:32:09;97820.25;;;9.38;51.60
72428;BME280;60419;48.880;18.036;2023-03-14T00:34:54;97816.78;;;9.38;51.54
72428;BME280;60419;48.880;18.036;2023-03-14T00:37:40;97813.31;;;9.28;52.19
72428;BME280;60419;48.880;18.036;2023-03-14T00:40:25;97767.75;;;9.15;51.32
72428;BME280;60419;48.880;18.036;2023-03-14T00:43:10;97794.53;;;9.41;51.18
72428;BME280;60419;48.880;18.036;2023-03-14T00:45:55;97783.81;;;9.32;51.16
72428;BME280;60419;48.880;18.036;2023-03-14T00:48:44;97769.56;;;9.32;51.40
72428;BME280;60419;48.880;18.036;2023-03-14T00:51:30;97766.09;;;9.22;51.29
72428;BME280;60419;48.880;18.036;2023-03-14T00:54:15;97767.81;;;9.27;51.51
72428;BME280;60419;48.880;18.036;2023-03-14T00:57:01;97747.38;;;9.26;51.57
72428;BME280;60419;48.880;18.036;2023-03-14T00:59:46;97753.25;;;9.28;51.28
72428;BME280;60419;48.880;18.036;2023-03-14T01:02:31;97750.53;;;9.07;52.05
72428;BME280;60419;48.880;18.036;2023-03-14T01:05:17;97747.53;;;9.29;51.37
72428;BME280;60419;48.880;18.036;2023-03-14T01:08:03;97733.91;;;9.26;51.11
72428;BME280;60419;48.880;18.036;2023-03-14T01:10:48;97739.00;;;9.19;51.88
72428;BME280;60419;48.880;18.036;2023-03-14T01:13:33;97734.63;;;9.14;51.87
72428;BME280;60419;48.880;18.036;2023-03-14T01:16:20;97728.78;;;9.12;51.98
72428;BME280;60419;48.880;18.036;2023-03-14T01:19:05;97725.22;;;9.20;51.16
72428;BME280;60419;48.880;18.036;2023-03-14T01:21:51;97728.97;;;9.07;51.84
72428;BME280;60419;48.880;18.036;2023-03-14T01:24:37;97716.94;;;9.04;52.17
72428;BME280;60419;48.880;18.036;2023-03-14T01:27:22;97702.63;;;9.13;51.54
72428;BME280;60419;48.880;18.036;2023-03-14T01:30:09;97697.25;;;9.34;51.19
72428;BME280;60419;48.880;18.036;2023-03-14T01:32:55;97712.44;;;8.88;52.40
72428;BME280;60419;48.880;18.036;2023-03-14T01:35:40;97693.91;;;8.65;52.24
72428;BME280;60419;48.880;18.036;2023-03-14T01:38:25;97726.69;;;8.58;53.39
72428;BME280;60419;48.880;18.036;2023-03-14T01:41:15;97728.66;;;8.49;53.01
72428;BME280;60419;48.880;18.036;2023-03-14T01:44:01;97721.25;;;8.67;52.79
72428;BME280;60419;48.880;18.036;2023-03-14T01:46:46;97727.41;;;8.47;53.90
72428;BME280;60419;48.880;18.036;2023-03-14T01:49:34;97731.97;;;8.46;53.60
72428;BME280;60419;48.880;18.036;2023-03-14T01:52:47;97707.19;;;8.70;52.20
72428;BME280;60419;48.880;18.036;2023-03-14T01:55:36;97679.41;;;8.49;52.42
72428;BME280;60419;48.880;18.036;2023-03-14T01:58:23;97696.84;;;9.02;51.49
72428;BME280;60419;48.880;18.036;2023-03-14T02:01:11;97688.66;;;8.69;52.10
72428;BME280;60419;48.880;18.036;2023-03-14T02:03:59;97674.88;;;8.70;51.87
72428;BME280;60419;48.880;18.036;2023-03-14T02:06:57;97656.00;;;8.40;52.39
72428;BME280;60419;48.880;18.036;2023-03-14T02:09:44;97655.69;;;8.72;51.82
72428;BME280;60419;48.880;18.036;2023-03-14T02:12:30;97640.44;;;8.55;52.37
72428;BME280;60419;48.880;18.036;2023-03-14T02:15:15;97621.06;;;8.82;51.18
72428;BME280;60419;48.880;18.036;2023-03-14T02:18:02;97599.72;;;8.77;51.12
72428;BME280;60419;48.880;18.036;2023-03-14T02:21:14;97578.94;;;8.66;51.03
72428;BME280;60419;48.880;18.036;2023-03-14T02:27:05;97525.41;;;8.85;50.34
72428;BME280;60419;48.880;18.036;2023-03-14T02:29:57;97528.84;;;8.73;50.56
72428;BME280;60419;48.880;18.036;2023-03-14T02:32:51;97523.75;;;8.93;50.48
72428;BME280;60419;48.880;18.036;2023-03-14T02:35:52;97502.59;;;8.82;50.32
72428;BME280;60419;48.880;18.036;2023-03-14T02:38:51;97513.03;;;9.05;49.33
72428;BME280;60419;48.880;18.036;2023-03-14T02:41:37;97497.88;;;9.13;49.40
72428;BME280;60419;48.880;18.036;2023-03-14T02:44:22;97479.56;;;8.94;49.98
72428;BME280;60419;48.880;18.036;2023-03-14T02:47:08;97495.56;;;8.90;50.34
72428;BME280;60419;48.880;18.036;2023-03-14T02:49:59;97501.16;;;8.85;49.86
72428;BME280;60419;48.880;18.036;2023-03-14T02:52:46;97506.13;;;8.95;49.81
72428;BME280;60419;48.880;18.036;2023-03-14T02:55:31;97494.63;;;8.74;49.92
72428;BME280;60419;48.880;18.036;2023-03-14T02:58:17;97476.56;;;8.74;50.23
72428;BME280;60419;48.880;18.036;2023-03-14T03:01:03;97485.47;;;8.87;50.08
72428;BME280;60419;48.880;18.036;2023-03-14T03:03:49;97474.25;;;8.85;49.83
72428;BME280;60419;48.880;18.036;2023-03-14T03:06:34;97481.84;;;9.04;49.50
72428;BME280;60419;48.880;18.036;2023-03-14T03:09:20;97499.59;;;9.17;49.66
72428;BME280;60419;48.880;18.036;2023-03-14T03:12:05;97512.50;;;9.12;48.95
72428;BME280;60419;48.880;18.036;2023-03-14T03:14:51;97513.53;;;8.98;49.82
72428;BME280;60419;48.880;18.036;2023-03-14T03:17:36;97509.13;;;8.81;49.95
72428;BME280;60419;48.880;18.036;2023-03-14T03:20:21;97524.78;;;9.00;49.98
72428;BME280;60419;48.880;18.036;2023-03-14T03:23:07;97522.78;;;8.76;50.73
72428;BME280;60419;48.880;18.036;2023-03-14T03:25:52;97509.22;;;8.73;51.20
72428;BME280;60419;48.880;18.036;2023-03-14T03:28:37;97508.59;;;8.67;50.62
72428;BME280;60419;48.880;18.036;2023-03-14T03:31:23;97508.66;;;8.79;51.21
72428;BME280;60419;48.880;18.036;2023-03-14T03:34:08;97506.19;;;9.07;49.75
72428;BME280;60419;48.880;18.036;2023-03-14T03:36:56;97514.94;;;9.04;49.54
72428;BME280;60419;48.880;18.036;2023-03-14T03:39:42;97513.34;;;9.03;49.53
72428;BME280;60419;48.880;18.036;2023-03-14T03:42:27;97520.09;;;8.76;50.32
72428;BME280;60419;48.880;18.036;2023-03-14T03:45:13;97488.78;;;9.05;50.14
72428;BME280;60419;48.880;18.036;2023-03-14T03:47:58;97508.88;;;9.07;50.20
72428;BME280;60419;48.880;18.036;2023-03-14T03:50:45;97490.75;;;8.96;50.00
72428;BME280;60419;48.880;18.036;2023-03-14T03:53:30;97478.06;;;8.84;50.73
72428;BME280;60419;48.880;18.036;2023-03-14T03:56:15;97488.41;;;8.94;50.47
72428;BME280;60419;48.880;18.036;2023-03-14T03:59:01;97520.50;;;8.66;51.27
72428;BME280;60419;48.880;18.036;2023-03-14T04:01:46;97515.03;;;8.75;51.42
72428;BME280;60419;48.880;18.036;2023-03-14T04:04:32;97511.63;;;8.86;50.63
72428;BME280;60419;48.880;18.036;2023-03-14T04:07:17;97528.31;;;9.13;50.20
72428;BME280;60419;48.880;18.036;2023-03-14T04:10:03;97538.97;;;9.22;50.24
72428;BME280;60419;48.880;18.036;2023-03-14T04:12:48;97554.78;;;9.11;49.80
72428;BME280;60419;48.880;18.036;2023-03-14T04:15:34;97542.56;;;9.14;49.94
72428;BME280;60419;48.880;18.036;2023-03-14T04:18:19;97528.06;;;8.73;50.11
72428;BME280;60419;48.880;18.036;2023-03-14T04:21:05;97566.31;;;8.78;51.10
72428;BME280;60419;48.880;18.036;2023-03-14T04:23:50;97548.25;;;8.79;50.59
72428;BME280;60419;48.880;18.036;2023-03-14T04:26:36;97555.28;;;8.50;51.52
72428;BME280;60419;48.880;18.036;2023-03-14T04:29:21;97562.06;;;8.06;53.04
72428;BME280;60419;48.880;18.036;2023-03-14T04:32:06;97577.78;;;7.86;54.25
72428;BME280;60419;48.880;18.036;2023-03-14T04:34:52;97576.34;;;7.97;53.42
72428;BME280;60419;48.880;18.036;2023-03-14T04:37:37;97570.81;;;8.24;52.94
72428;BME280;60419;48.880;18.036;2023-03-14T04:40:22;97561.84;;;8.40;52.00
72428;BME280;60419;48.880;18.036;2023-03-14T04:43:08;97546.94;;;8.43;51.91
72428;BME280;60419;48.880;18.036;2023-03-14T04:45:56;97551.16;;;8.32;52.51
72428;BME280;60419;48.880;18.036;2023-03-14T04:48:42;97539.63;;;8.52;51.70
72428;BME280;60419;48.880;18.036;2023-03-14T04:51:27;97537.03;;;8.77;51.20
72428;BME280;60419;48.880;18.036;2023-03-14T04:54:12;97533.41;;;8.94;50.41
72428;BME280;60419;48.880;18.036;2023-03-14T04:56:58;97509.00;;;8.78;50.90
72428;BME280;60419;48.880;18.036;2023-03-14T04:59:44;97498.75;;;8.71;51.33
72428;BME280;60419;48.880;18.036;2023-03-14T05:02:29;97507.22;;;8.82;51.01
72428;BME280;60419;48.880;18.036;2023-03-14T05:05:14;97503.59;;;8.99;50.37
72428;BME280;60419;48.880;18.036;2023-03-14T05:08:00;97510.91;;;9.11;50.21
72428;BME280;60419;48.880;18.036;2023-03-14T05:10:51;97503.59;;;8.99;51.38
72428;BME280;60419;48.880;18.036;2023-03-14T05:13:37;97511.56;;;9.07;50.83
72428;BME280;60419;48.880;18.036;2023-03-14T05:16:22;97492.72;;;9.07;51.18
72428;BME280;60419;48.880;18.036;2023-03-14T05:19:07;97504.72;;;8.77;51.96
72428;BME280;60419;48.880;18.036;2023-03-14T05:21:53;97501.84;;;8.82;51.80
72428;BME280;60419;48.880;18.036;2023-03-14T05:24:38;97497.59;;;8.93;51.70
72428;BME280;60419;48.880;18.036;2023-03-14T05:27:23;97483.81;;;8.95;52.35
72428;BME280;60419;48.880;18.036;2023-03-14T05:30:09;97491.22;;;8.98;51.76
72428;BME280;60419;48.880;18.036;2023-03-14T05:32:55;97500.75;;;8.62;52.73
72428;BME280;60419;48.880;18.036;2023-03-14T05:35:41;97500.47;;;8.76;52.74
72428;BME280;60419;48.880;18.036;2023-03-14T05:38:27;97470.72;;;8.72;52.45
72428;BME280;60419;48.880;18.036;2023-03-14T05:41:12;97495.50;;;8.99;52.37
72428;BME280;60419;48.880;18.036;2023-03-14T05:43:57;97487.84;;;8.89;52.58
72428;BME280;60419;48.880;18.036;2023-03-14T05:46:43;97480.75;;;8.84;52.66
72428;BME280;60419;48.880;18.036;2023-03-14T05:49:28;97483.91;;;8.98;52.57
72428;BME280;60419;48.880;18.036;2023-03-14T05:52:14;97455.13;;;8.66;52.53
72428;BME280;60419;48.880;18.036;2023-03-14T05:54:59;97487.16;;;8.58;53.32
72428;BME280;60419;48.880;18.036;2023-03-14T05:57:44;97497.69;;;8.84;53.32
72428;BME280;60419;48.880;18.036;2023-03-14T06:00:30;97480.88;;;8.54;53.57
72428;BME280;60419;48.880;18.036;2023-03-14T06:03:15;97515.63;;;8.80;53.21
72428;BME280;60419;48.880;18.036;2023-03-14T06:06:00;97501.31;;;9.01;52.30
72428;BME280;60419;48.880;18.036;2023-03-14T06:08:45;97498.25;;;9.23;52.19
72428;BME280;60419;48.880;18.036;2023-03-14T06:11:31;97495.50;;;9.11;52.36
72428;BME280;60419;48.880;18.036;2023-03-14T06:14:16;97508.53;;;9.30;51.78
72428;BME280;60419;48.880;18.036;2023-03-14T06:17:02;97486.75;;;9.47;51.31
72428;BME280;60419;48.880;18.036;2023-03-14T06:19:47;97493.25;;;9.01;52.61
72428;BME280;60419;48.880;18.036;2023-03-14T06:22:32;97488.41;;;9.27;52.25
72428;BME280;60419;48.880;18.036;2023-03-14T06:25:18;97521.56;;;9.40;52.76
72428;BME280;60419;48.880;18.036;2023-03-14T06:28:04;97516.38;;;9.35;51.96
72428;BME280;60419;48.880;18.036;2023-03-14T06:30:49;97516.59;;;9.42;51.58
72428;BME280;60419;48.880;18.036;2023-03-14T06:33:34;97533.00;;;9.37;51.77
72428;BME280;60419;48.880;18.036;2023-03-14T06:36:20;97532.94;;;9.70;52.13
72428;BME280;60419;48.880;18.036;2023-03-14T06:39:05;97544.22;;;9.39;52.18
72428;BME280;60419;48.880;18.036;2023-03-14T06:41:50;97547.75;;;9.52;52.68
72428;BME280;60419;48.880;18.036;2023-03-14T06:44:36;97553.69;;;9.58;52.74
72428;BME280;60419;48.880;18.036;2023-03-14T06:47:21;97571.00;;;9.57;53.10
72428;BME280;60419;48.880;18.036;2023-03-14T06:50:08;97559.78;;;9.79;52.92
72428;BME280;60419;48.880;18.036;2023-03-14T06:52:54;97562.72;;;9.99;52.28
72428;BME280;60419;48.880;18.036;2023-03-14T06:55:39;97582.72;;;10.10;52.73
72428;BME280;60419;48.880;18.036;2023-03-14T06:58:25;97561.81;;;9.94;53.25
72428;BME280;60419;48.880;18.036;2023-03-14T07:01:20;97552.16;;;10.06;53.18
72428;BME280;60419;48.880;18.036;2023-03-14T07:04:06;97563.28;;;10.16;52.83
72428;BME280;60419;48.880;18.036;2023-03-14T07:06:51;97567.88;;;10.41;52.71
72428;BME280;60419;48.880;18.036;2023-03-14T07:09:36;97573.34;;;10.56;52.34
72428;BME280;60419;48.880;18.036;2023-03-14T07:12:22;97566.00;;;10.69;51.83
72428;BME280;60419;48.880;18.036;2023-03-14T07:15:08;97564.50;;;10.31;53.32
72428;BME280;60419;48.880;18.036;2023-03-14T07:17:54;97560.44;;;10.37;53.10
72428;BME280;60419;48.880;18.036;2023-03-14T07:20:39;97556.66;;;10.26;53.61
72428;BME280;60419;48.880;18.036;2023-03-14T07:23:25;97567.66;;;10.33;53.59
72428;BME280;60419;48.880;18.036;2023-03-14T07:26:10;97571.56;;;10.60;53.02
72428;BME280;60419;48.880;18.036;2023-03-14T07:28:55;97579.66;;;10.36;53.15
72428;BME280;60419;48.880;18.036;2023-03-14T07:31:41;97579.66;;;10.36;53.24
72428;BME280;60419;48.880;18.036;2023-03-14T07:34:26;97567.63;;;10.46;53.71
72428;BME280;60419;48.880;18.036;2023-03-14T07:37:11;97554.19;;;10.74;52.77
72428;BME280;60419;48.880;18.036;2023-03-14T07:39:57;97568.19;;;10.51;53.21
72428;BME280;60419;48.880;18.036;2023-03-14T07:42:42;97574.19;;;10.85;52.22
72428;BME280;60419;48.880;18.036;2023-03-14T07:45:28;97567.22;;;10.84;52.54
72428;BME280;60419;48.880;18.036;2023-03-14T07:48:13;97562.59;;;10.97;52.24
72428;BME280;60419;48.880;18.036;2023-03-14T07:50:59;97570.47;;;10.77;52.95
72428;BME280;60419;48.880;18.036;2023-03-14T07:53:44;97574.97;;;10.86;52.84
72428;BME280;60419;48.880;18.036;2023-03-14T07:56:31;97568.53;;;11.02;52.83
72428;BME280;60419;48.880;18.036;2023-03-14T07:59:16;97571.13;;;11.43;52.17
72428;BME280;60419;48.880;18.036;2023-03-14T08:02:01;97552.44;;;11.22;52.51
72428;BME280;60419;48.880;18.036;2023-03-14T08:04:47;97545.84;;;11.51;51.95
72428;BME280;60419;48.880;18.036;2023-03-14T08:07:32;97551.38;;;11.55;51.56
72428;BME280;60419;48.880;18.036;2023-03-14T08:10:17;97546.94;;;11.62;52.01
72428;BME280;60419;48.880;18.036;2023-03-14T08:13:06;97535.41;;;11.81;51.09
72428;BME280;60419;48.880;18.036;2023-03-14T08:15:51;97542.78;;;12.16;50.25
72428;BME280;60419;48.880;18.036;2023-03-14T08:18:36;97559.47;;;12.02;50.80
72428;BME280;60419;48.880;18.036;2023-03-14T08:21:22;97557.47;;;11.99;50.88
72428;BME280;60419;48.880;18.036;2023-03-14T08:24:07;97554.16;;;11.58;52.01
72428;BME280;60419;48.880;18.036;2023-03-14T08:26:53;97545.44;;;11.97;51.35
72428;BME280;60419;48.880;18.036;2023-03-14T08:29:38;97545.84;;;12.30;50.29
72428;BME280;60419;48.880;18.036;2023-03-14T08:32:25;97553.44;;;12.25;50.43
72428;BME280;60419;48.880;18.036;2023-03-14T08:35:11;97531.81;;;12.09;51.58
72428;BME280;60419;48.880;18.036;2023-03-14T08:37:56;97544.72;;;12.00;52.17
72428;BME280;60419;48.880;18.036;2023-03-14T08:40:41;97553.00;;;12.23;51.69
72428;BME280;60419;48.880;18.036;2023-03-14T08:43:27;97543.88;;;12.47;50.69
72428;BME280;60419;48.880;18.036;2023-03-14T08:46:13;97542.50;;;12.37;51.04
72428;BME280;60419;48.880;18.036;2023-03-14T08:48:58;97533.16;;;12.19;51.51
72428;BME280;60419;48.880;18.036;2023-03-14T08:51:43;97523.03;;;12.16;51.77
72428;BME280;60419;48.880;18.036;2023-03-14T08:54:29;97511.47;;;11.99;52.00
72428;BME280;60419;48.880;18.036;2023-03-14T08:57:14;97521.94;;;12.01;52.24
72428;BME280;60419;48.880;18.036;2023-03-14T09:00:00;97506.47;;;12.17;52.16
72428;BME280;60419;48.880;18.036;2023-03-14T09:02:45;97506.06;;;12.50;51.41
72428;BME280;60419;48.880;18.036;2023-03-14T09:05:33;97497.13;;;12.50;50.89
72428;BME280;60419;48.880;18.036;2023-03-14T09:08:19;97513.13;;;12.74;50.39
72428;BME280;60419;48.880;18.036;2023-03-14T09:11:07;97517.22;;;12.49;51.19
72428;BME280;60419;48.880;18.036;2023-03-14T09:13:53;97523.19;;;12.39;52.06
72428;BME280;60419;48.880;18.036;2023-03-14T09:16:38;97518.13;;;13.15;49.92
72428;BME280;60419;48.880;18.036;2023-03-14T09:19:23;97510.28;;;13.52;49.13
72428;BME280;60419;48.880;18.036;2023-03-14T09:22:09;97511.66;;;13.42;49.79
72428;BME280;60419;48.880;18.036;2023-03-14T09:24:54;97496.38;;;13.11;50.29
72428;BME280;60419;48.880;18.036;2023-03-14T09:27:39;97510.41;;;13.59;49.57
72428;BME280;60419;48.880;18.036;2023-03-14T09:30:25;97511.88;;;13.53;50.29
72428;BME280;60419;48.880;18.036;2023-03-14T09:33:10;97505.16;;;13.70;49.54
72428;BME280;60419;48.880;18.036;2023-03-14T09:35:58;97508.91;;;13.85;49.39
72428;BME280;60419;48.880;18.036;2023-03-14T09:38:43;97502.34;;;13.86;49.43
72428;BME280;60419;48.880;18.036;2023-03-14T09:41:34;97509.00;;;13.65;50.23
72428;BME280;60419;48.880;18.036;2023-03-14T09:44:27;97511.59;;;13.39;51.69
72428;BME280;60419;48.880;18.036;2023-03-14T09:47:15;97500.50;;;13.25;51.97
72428;BME280;60419;48.880;18.036;2023-03-14T09:50:01;97521.13;;;13.29;52.40
72428;BME280;60419;48.880;18.036;2023-03-14T09:52:56;97512.81;;;13.64;51.90
72428;BME280;60419;48.880;18.036;2023-03-14T09:55:43;97517.88;;;12.81;53.20
72428;BME280;60419;48.880;18.036;2023-03-14T09:58:30;97515.94;;;12.82;53.00
72428;BME280;60419;48.880;18.036;2023-03-14T10:01:18;97513.41;;;12.69;53.70
72428;BME280;60419;48.880;18.036;2023-03-14T10:04:15;97517.97;;;12.85;52.79
72428;BME280;60419;48.880;18.036;2023-03-14T10:07:02;97525.44;;;12.91;52.33
72428;BME280;60419;48.880;18.036;2023-03-14T10:09:49;97525.56;;;12.98;52.46
72428;BME280;60419;48.880;18.036;2023-03-14T10:12:36;97519.72;;;12.96;52.37
72428;BME280;60419;48.880;18.036;2023-03-14T10:15:25;97511.53;;;13.55;51.14
72428;BME280;60419;48.880;18.036;2023-03-14T10:18:12;97514.59;;;13.53;51.32
72428;BME280;60419;48.880;18.036;2023-03-14T10:23:51;97512.47;;;13.66;51.15
72428;BME280;60419;48.880;18.036;2023-03-14T10:26:37;97524.09;;;13.66;50.77
72428;BME280;60419;48.880;18.036;2023-03-14T10:29:23;97511.91;;;13.34;52.12
72428;BME280;60419;48.880;18.036;2023-03-14T10:32:20;97519.63;;;13.32;52.72
72428;BME280;60419;48.880;18.036;2023-03-14T10:35:41;97531.78;;;13.61;52.05
72428;BME280;60419;48.880;18.036;2023-03-14T10:38:19;97523.94;;;13.79;51.18
72428;BME280;60419;48.880;18.036;2023-03-14T10:41:24;97529.09;;;13.87;51.33
72428;BME280;60419;48.880;18.036;2023-03-14T10:44:12;97535.22;;;13.81;50.52
72428;BME280;60419;48.880;18.036;2023-03-14T10:47:03;97516.09;;;13.74;51.16
72428;BME280;60419;48.880;18.036;2023-03-14T10:49:49;97517.94;;;13.70;50.79
72428;BME280;60419;48.880;18.036;2023-03-14T10:52:34;97512.47;;;14.16;49.22
72428;BME280;60419;48.880;18.036;2023-03-14T10:55:20;97494.91;;;14.36;48.94
72428;BME280;60419;48.880;18.036;2023-03-14T10:58:20;97501.97;;;14.41;49.44
72428;BME280;60419;48.880;18.036;2023-03-14T11:01:39;97497.34;;;14.45;48.79
72428;BME280;60419;48.880;18.036;2023-03-14T11:04:43;97494.06;;;14.32;49.33
72428;BME280;60419;48.880;18.036;2023-03-14T11:07:39;97489.25;;;14.79;48.13
72428;BME280;60419;48.880;18.036;2023-03-14T11:10:33;97479.88;;;14.16;49.80
72428;BME280;60419;48.880;18.036;2023-03-14T11:20:33;97456.25;;;14.50;49.49
72428;BME280;60419;48.880;18.036;2023-03-14T11:23:11;97422.88;;;14.49;49.54
72428;BME280;60419;48.880;18.036;2023-03-14T11:28:50;97435.19;;;14.40;50.36
72428;BME280;60419;48.880;18.036;2023-03-14T11:31:38;97433.75;;;13.89;51.70
72428;BME280;60419;48.880;18.036;2023-03-14T11:34:36;97429.25;;;13.74;52.55
72428;BME280;60419;48.880;18.036;2023-03-14T11:37:36;97434.03;;;14.10;51.83
72428;BME280;60419;48.880;18.036;2023-03-14T11:40:24;97431.28;;;14.07;52.28
72428;BME280;60419;48.880;18.036;2023-03-14T11:43:20;97415.22;;;13.68;53.11
72428;BME280;60419;48.880;18.036;2023-03-14T11:46:23;97438.22;;;14.04;52.40
72428;BME280;60419;48.880;18.036;2023-03-14T11:52:46;97441.97;;;13.96;53.01
72428;BME280;60419;48.880;18.036;2023-03-14T11:55:35;97439.69;;;13.72;53.92
72428;BME280;60419;48.880;18.036;2023-03-14T11:58:29;97434.00;;;13.54;54.34
72428;BME280;60419;48.880;18.036;2023-03-14T12:01:17;97433.91;;;13.27;56.25
72428;BME280;60419;48.880;18.036;2023-03-14T12:04:19;97433.91;;;13.27;57.78
72428;BME280;60419;48.880;18.036;2023-03-14T12:07:33;97434.66;;;13.24;59.07
72428;BME280;60419;48.880;18.036;2023-03-14T12:10:20;97429.66;;;13.26;58.57
72428;BME280;60419;48.880;18.036;2023-03-14T12:13:08;97429.56;;;13.22;60.83
72428;BME280;60419;48.880;18.036;2023-03-14T12:15:58;97421.34;;;13.65;61.08
72428;BME280;60419;48.880;18.036;2023-03-14T12:18:43;97423.94;;;13.81;59.38
72428;BME280;60419;48.880;18.036;2023-03-14T12:22:05;97407.88;;;14.25;55.89
72428;BME280;60419;48.880;18.036;2023-03-14T12:25:20;97407.94;;;14.02;58.47
72428;BME280;60419;48.880;18.036;2023-03-14T12:28:18;97415.16;;;12.53;65.08
72428;BME280;60419;48.880;18.036;2023-03-14T12:43:03;97415.94;;;13.92;63.54
72428;BME280;60419;48.880;18.036;2023-03-14T12:46:15;97425.47;;;14.08;63.48
72428;BME280;60419;48.880;18.036;2023-03-14T12:49:08;97394.34;;;13.72;63.52
72428;BME280;60419;48.880;18.036;2023-03-14T12:51:59;97433.22;;;13.80;64.39
72428;BME280;60419;48.880;18.036;2023-03-14T12:57:47;97430.53;;;13.57;65.13
72428;BME280;60419;48.880;18.036;2023-03-14T13:00:41;97421.69;;;13.86;64.23
72428;BME280;60419;48.880;18.036;2023-03-14T13:03:40;97406.38;;;13.48;65.71
72428;BME280;60419;48.880;18.036;2023-03-14T13:12:18;97440.28;;;11.79;70.33
72428;BME280;60419;48.880;18.036;2023-03-14T13:15:38;97439.53;;;11.63;70.63
72428;BME280;60419;48.880;18.036;2023-03-14T13:18:29;97428.09;;;11.38;70.81
72428;BME280;60419;48.880;18.036;2023-03-14T13:21:24;97422.50;;;10.99;72.13
72428;BME280;60419;48.880;18.036;2023-03-14T13:24:24;97452.00;;;11.20;72.61
72428;BME280;60419;48.880;18.036;2023-03-14T13:27:20;97452.69;;;11.01;74.08
72428;BME280;60419;48.880;18.036;2023-03-14T13:33:03;97451.75;;;10.81;74.54
72428;BME280;60419;48.880;18.036;2023-03-14T13:36:01;97452.91;;;10.68;75.92
72428;BME280;60419;48.880;18.036;2023-03-14T13:38:56;97452.13;;;10.39;75.44
72428;BME280;60419;48.880;18.036;2023-03-14T13:41:43;97439.19;;;10.45;75.21
72428;BME280;60419;48.880;18.036;2023-03-14T13:44:33;97442.44;;;10.50;75.54
72428;BME280;60419;48.880;18.036;2023-03-14T13:47:21;97440.41;;;10.75;74.95
72428;BME280;60419;48.880;18.036;2023-03-14T13:50:17;97423.00;;;10.45;75.38
72428;BME280;60419;48.880;18.036;2023-03-14T13:53:03;97447.38;;;10.48;74.85
72428;BME280;60419;48.880;18.036;2023-03-14T13:55:49;97459.94;;;10.28;75.83
72428;BME280;60419;48.880;18.036;2023-03-14T13:58:36;97462.19;;;10.26;75.84
72428;BME280;60419;48.880;18.036;2023-03-14T14:01:37;97457.16;;;10.12;75.87
72428;BME280;60419;48.880;18.036;2023-03-14T14:04:24;97477.50;;;10.10;76.07
72428;BME280;60419;48.880;18.036;2023-03-14T14:07:15;97480.78;;;10.03;76.49
72428;BME280;60419;48.880;18.036;2023-03-14T14:10:03;97490.00;;;10.02;76.55
72428;BME280;60419;48.880;18.036;2023-03-14T14:12:56;97473.97;;;10.34;75.43
72428;BME280;60419;48.880;18.036;2023-03-14T14:15:46;97468.84;;;10.16;75.45
72428;BME280;60419;48.880;18.036;2023-03-14T14:18:34;97480.09;;;10.19;76.12
72428;BME280;60419;48.880;18.036;2023-03-14T14:21:20;97484.50;;;9.99;77.53
72428;BME280;60419;48.880;18.036;2023-03-14T14:24:14;97489.44;;;10.09;77.58
72428;BME280;60419;48.880;18.036;2023-03-14T14:27:08;97489.56;;;9.76;79.10
72428;BME280;60419;48.880;18.036;2023-03-14T14:30:06;97485.41;;;9.78;79.16
72428;BME280;60419;48.880;18.036;2023-03-14T14:33:20;97495.41;;;9.90;78.50
72428;BME280;60419;48.880;18.036;2023-03-14T14:36:17;97499.34;;;9.43;80.86
72428;BME280;60419;48.880;18.036;2023-03-14T14:39:15;97499.66;;;9.42;81.55
72428;BME280;60419;48.880;18.036;2023-03-14T14:42:02;97508.53;;;9.55;81.31
72428;BME280;60419;48.880;18.036;2023-03-14T14:44:49;97501.31;;;9.34;82.50
72428;BME280;60419;48.880;18.036;2023-03-14T14:47:48;97503.25;;;9.34;82.24
72428;BME280;60419;48.880;18.036;2023-03-14T14:50:48;97498.97;;;9.45;82.82
72428;BME280;60419;48.880;18.036;2023-03-14T14:53:42;97503.06;;;9.88;80.97
72428;BME280;60419;48.880;18.036;2023-03-14T14:56:28;97497.31;;;9.52;83.09
72428;BME280;60419;48.880;18.036;2023-03-14T14:59:20;97499.78;;;9.94;81.41
72428;BME280;60419;48.880;18.036;2023-03-14T15:02:39;97510.81;;;9.65;82.01
72428;BME280;60419;48.880;18.036;2023-03-14T15:05:28;97511.47;;;9.86;80.68
72428;BME280;60419;48.880;18.036;2023-03-14T15:08:15;97503.97;;;9.80;81.26
72428;BME280;60419;48.880;18.036;2023-03-14T15:11:01;97507.19;;;9.48;82.39
72428;BME280;60419;48.880;18.036;2023-03-14T15:13:46;97505.50;;;9.68;81.06
72428;BME280;60419;48.880;18.036;2023-03-14T15:16:31;97502.94;;;9.84;80.54
72428;BME280;60419;48.880;18.036;2023-03-14T15:19:23;97466.47;;;10.15;79.18
72428;BME280;60419;48.880;18.036;2023-03-14T15:22:11;97489.88;;;10.51;78.16
72428;BME280;60419;48.880;18.036;2023-03-14T15:24:58;97492.94;;;10.90;75.44
72428;BME280;60419;48.880;18.036;2023-03-14T15:27:43;97510.56;;;10.59;76.77
72428;BME280;60419;48.880;18.036;2023-03-14T15:30:29;97511.50;;;10.92;75.83